Observation data for Post on 10/18/2019      Previous  Date       Current Mesonet Observations  Soil Data  Daily Summary Page  Observations in Plain Language
KPT1 180500Z 18009KT 17/01 A2988 RMK A01 T01700005  RH  033%=      5-min Rain = 0
KPT1 180505Z 17010KT 17/00 A2987 RMK A01 T01700004  RH  033%=      5-min Rain = 0
KPT1 180510Z 17010G16KT 17/00 A2987 RMK A01 T01700003  RH  033%=      5-min Rain = 0
KPT1 180515Z 17011KT 17/00 A2987 RMK A01 T01700001  RH  032%=      5-min Rain = 0
KPT1 180520Z 17010G15KT 17/00 A2987 RMK A01 T01690001  RH  032%=      5-min Rain = 0
KPT1 180525Z 17010KT 17/00 A2986 RMK A01 T016800-0  RH  032%=      5-min Rain = 0
KPT1 180530Z 17010G15KT 17/00 A2987 RMK A01 T016600-0  RH  033%=      5-min Rain = 0
KPT1 180535Z 17011KT 17/M00 A2986 RMK A01 T01671002  RH  032%=      5-min Rain = 0
KPT1 180540Z 17011G16KT 17/M00 A2986 RMK A01 T01661003  RH  032%=      5-min Rain = 0
KPT1 180545Z 17010G15KT 17/M00 A2986 RMK A01 T01651003  RH  032%=      5-min Rain = 0
KPT1 180550Z 17010KT 16/M00 A2986 RMK A01 T01631003  RH  032%=      5-min Rain = 0
KPT1 180555Z 17009KT 16/M00 A2986 RMK A01 T01611004  RH  033%=      5-min Rain = 0
KPT1 180600Z 18009KT 16/M01 A2986 RMK A01 T01611005  RH  033%=      5-min Rain = 0
KPT1 180605Z 18009G14KT 16/M01 A2986 RMK A01 T01601005  RH  033%=      5-min Rain = 0
KPT1 180610Z 17009KT 16/M01 A2986 RMK A01 T01601006  RH  032%=      5-min Rain = 0
KPT1 180615Z 17008KT 16/M01 A2986 RMK A01 T01591007  RH  033%=      5-min Rain = 0
KPT1 180620Z 18007KT 16/M01 A2986 RMK A01 T01581008  RH  033%=      5-min Rain = 0
KPT1 180625Z 18009G16KT 16/M01 A2986 RMK A01 T01581009  RH  032%=      5-min Rain = 0
KPT1 180630Z 18009KT 16/M01 A2986 RMK A01 T01601010  RH  031%=      5-min Rain = 0
KPT1 180635Z 18011G16KT 16/M01 A2985 RMK A01 T01611011  RH  031%=      5-min Rain = 0
KPT1 180640Z 19010G15KT 16/M01 A2985 RMK A01 T01611011  RH  031%=      5-min Rain = 0
KPT1 180645Z 18011KT 16/M01 A2985 RMK A01 T01601011  RH  031%=      5-min Rain = 0
KPT1 180650Z 18012G18KT 16/M01 A2985 RMK A01 T01601011  RH  031%=      5-min Rain = 0
KPT1 180655Z 18010G15KT 16/M01 A2985 RMK A01 T01581009  RH  032%=      5-min Rain = 0
KPT1 180700Z 18009KT 16/M01 A2985 RMK A01 T01561008  RH  033%=      5-min Rain = 0
KPT1 180705Z 18009KT 16/M01 A2985 RMK A01 T01551005  RH  034%=      5-min Rain = 0
KPT1 180710Z 18010KT 15/M00 A2985 RMK A01 T01541003  RH  035%=      5-min Rain = 0
KPT1 180715Z 18010G15KT 16/M00 A2985 RMK A01 T01551001  RH  035%=      5-min Rain = 0
KPT1 180720Z 18012G17KT 16/00 A2985 RMK A01 T01550000  RH  035%=      5-min Rain = 0
KPT1 180725Z 18011G16KT 16/00 A2984 RMK A01 T01550001  RH  035%=      5-min Rain = 0
KPT1 180730Z 18011KT 15/00 A2984 RMK A01 T01530001  RH  036%=      5-min Rain = 0
KPT1 180735Z 18010KT 15/00 A2984 RMK A01 T01530004  RH  037%=      5-min Rain = 0
KPT1 180740Z 19009KT 15/01 A2984 RMK A01 T01520007  RH  038%=      5-min Rain = 0
KPT1 180745Z 18010KT 15/01 A2984 RMK A01 T01520011  RH  039%=      5-min Rain = 0
KPT1 180750Z 20008G13KT 15/01 A2984 RMK A01 T01520014  RH  040%=      5-min Rain = 0
KPT1 180755Z 19007KT 15/02 A2984 RMK A01 T01500017  RH  041%=      5-min Rain = 0
KPT1 180800Z 19007KT 15/02 A2984 RMK A01 T01490020  RH  042%=      5-min Rain = 0
KPT1 180805Z 20006KT 15/02 A2984 RMK A01 T01490024  RH  044%=      5-min Rain = 0
KPT1 180810Z 20006KT 15/03 A2983 RMK A01 T01500029  RH  045%=      5-min Rain = 0
KPT1 180815Z 19006KT 15/03 A2983 RMK A01 T01500033  RH  046%=      5-min Rain = 0
KPT1 180820Z 20006KT 15/04 A2983 RMK A01 T01490035  RH  047%=      5-min Rain = 0
KPT1 180825Z 19007KT 15/04 A2983 RMK A01 T01490037  RH  048%=      5-min Rain = 0
KPT1 180830Z 20007KT 15/04 A2983 RMK A01 T01500041  RH  049%=      5-min Rain = 0
KPT1 180835Z 19007KT 15/04 A2983 RMK A01 T01520044  RH  049%=      5-min Rain = 0
KPT1 180840Z 19007KT 15/04 A2982 RMK A01 T01510043  RH  050%=      5-min Rain = 0
KPT1 180845Z 18008KT 15/04 A2982 RMK A01 T01500042  RH  049%=      5-min Rain = 0
KPT1 180850Z 19008G14KT 15/04 A2982 RMK A01 T01500043  RH  050%=      5-min Rain = 0
KPT1 180855Z 19009KT 15/05 A2982 RMK A01 T01510046  RH  050%=      5-min Rain = 0
KPT1 180900Z 19009G16KT 15/05 A2982 RMK A01 T01520051  RH  052%=      5-min Rain = 0
KPT1 180905Z 19009KT 15/05 A2982 RMK A01 T01530053  RH  052%=      5-min Rain = 0
KPT1 180910Z 19010G15KT 16/06 A2981 RMK A01 T01550058  RH  054%=      5-min Rain = 0
KPT1 180915Z 19010KT 16/06 A2981 RMK A01 T01550058  RH  054%=      5-min Rain = 0
KPT1 180920Z 20010G16KT 16/06 A2981 RMK A01 T01550060  RH  054%=      5-min Rain = 0
KPT1 180925Z 19009G15KT 15/06 A2981 RMK A01 T01530059  RH  055%=      5-min Rain = 0
KPT1 180930Z 19010G16KT 15/06 A2981 RMK A01 T01530058  RH  054%=      5-min Rain = 0
KPT1 180935Z 20009G17KT 15/06 A2981 RMK A01 T01510058  RH  055%=      5-min Rain = 0
KPT1 180940Z 20009G14KT 15/06 A298 RMK A01 T01510058  RH  055%=      5-min Rain = 0
KPT1 180945Z 21008KT 15/06 A298 RMK A01 T01490058  RH  055%=      5-min Rain = 0
KPT1 180950Z 21008KT 15/05 A298 RMK A01 T01470054  RH  055%=      5-min Rain = 0
KPT1 180955Z 20008KT 15/05 A298 RMK A01 T01450053  RH  055%=      5-min Rain = 0
KPT1 181000Z 19009G14KT 15/06 A298 RMK A01 T01460057  RH  056%=      5-min Rain = 0
KPT1 181005Z 19007KT 15/06 A298 RMK A01 T01480062  RH  058%=      5-min Rain = 0
KPT1 181010Z 18007KT 14/06 A298 RMK A01 T01430061  RH  059%=      5-min Rain = 0
KPT1 181015Z 18009KT 14/06 A2979 RMK A01 T01430058  RH  058%=      5-min Rain = 0
KPT1 181020Z 20010KT 14/06 A298 RMK A01 T01440056  RH  057%=      5-min Rain = 0
KPT1 181025Z 20008KT 14/06 A298 RMK A01 T01440057  RH  057%=      5-min Rain = 0
KPT1 181030Z 21009KT 14/06 A298 RMK A01 T01430057  RH  057%=      5-min Rain = 0
KPT1 181035Z 21012G19KT 14/05 A298 RMK A01 T01410048  RH  054%=      5-min Rain = 0
KPT1 181040Z 21012KT 14/05 A298 RMK A01 T01400046  RH  054%=      5-min Rain = 0
KPT1 181045Z 20011KT 14/05 A298 RMK A01 T01380046  RH  055%=      5-min Rain = 0
KPT1 181050Z 20009KT 14/05 A298 RMK A01 T01380048  RH  056%=      5-min Rain = 0
KPT1 181055Z 19008KT 14/05 A298 RMK A01 T01360050  RH  057%=      5-min Rain = 0
KPT1 181100Z 19008KT 14/05 A298 RMK A01 T01370052  RH  058%=      5-min Rain = 0
KPT1 181105Z 19009G14KT 14/05 A298 RMK A01 T01380053  RH  058%=      5-min Rain = 0
KPT1 181110Z 18008KT 14/05 A298 RMK A01 T01380054  RH  058%=      5-min Rain = 0
KPT1 181115Z 18008KT 14/06 A298 RMK A01 T01370055  RH  059%=      5-min Rain = 0
KPT1 181120Z 18006KT 14/06 A298 RMK A01 T01360055  RH  059%=      5-min Rain = 0
KPT1 181125Z 19007G12KT 14/06 A2981 RMK A01 T01370057  RH  060%=      5-min Rain = 0
KPT1 181130Z 19007KT 14/06 A2981 RMK A01 T01350057  RH  061%=      5-min Rain = 0
KPT1 181135Z 18008KT 14/06 A2981 RMK A01 T01360058  RH  061%=      5-min Rain = 0
KPT1 181140Z 19008G13KT 14/06 A2981 RMK A01 T01350059  RH  061%=      5-min Rain = 0
KPT1 181145Z 18008KT 14/06 A2981 RMK A01 T01360059  RH  061%=      5-min Rain = 0
KPT1 181150Z 18008KT 14/06 A2981 RMK A01 T01350059  RH  062%=      5-min Rain = 0
KPT1 181155Z 18007KT 13/06 A2981 RMK A01 T01330060  RH  062%=      5-min Rain = 0
KPT1 181200Z 18008KT 13/06 A2981 RMK A01 T01340060  RH  063%=      5-min Rain = 0
KPT1 181205Z 17007KT 13/06 A2981 RMK A01 T01340060  RH  062%=      5-min Rain = 0
KPT1 181210Z 18007KT 13/06 A2981 RMK A01 T01320059  RH  063%=      5-min Rain = 0
KPT1 181215Z 18007KT 13/06 A2981 RMK A01 T01310059  RH  063%=      5-min Rain = 0
KPT1 181220Z 18007KT 13/06 A2981 RMK A01 T01310060  RH  064%=      5-min Rain = 0
KPT1 181225Z 18007KT 13/06 A2981 RMK A01 T01310061  RH  064%=      5-min Rain = 0
KPT1 181230Z 19007KT 13/06 A2981 RMK A01 T01300061  RH  065%=      5-min Rain = 0
KPT1 181235Z 19008KT 13/06 A2981 RMK A01 T01290061  RH  065%=      5-min Rain = 0
KPT1 181240Z 19009KT 13/06 A2981 RMK A01 T01300063  RH  065%=      5-min Rain = 0
KPT1 181245Z 19009KT 13/07 A2981 RMK A01 T01320065  RH  065%=      5-min Rain = 0
KPT1 181250Z 19009KT 13/07 A298 RMK A01 T01340066  RH  065%=      5-min Rain = 0
KPT1 181255Z 20010KT 13/07 A298 RMK A01 T01340067  RH  065%=      5-min Rain = 0
KPT1 181300Z 20010KT 14/07 A298 RMK A01 T01350068  RH  065%=      5-min Rain = 0
KPT1 181305Z 20010KT 14/07 A298 RMK A01 T01360068  RH  065%=      5-min Rain = 0
KPT1 181310Z 20010G15KT 14/07 A298 RMK A01 T01370069  RH  065%=      5-min Rain = 0
KPT1 181315Z 20011KT 14/07 A298 RMK A01 T01390069  RH  064%=      5-min Rain = 0
KPT1 181320Z 20011KT 14/07 A298 RMK A01 T01420070  RH  064%=      5-min Rain = 0
KPT1 181325Z 20011KT 14/07 A298 RMK A01 T01420070  RH  063%=      5-min Rain = 0
KPT1 181330Z 20011G16KT 14/07 A298 RMK A01 T01440070  RH  063%=      5-min Rain = 0
KPT1 181335Z 20011G16KT 15/07 A298 RMK A01 T01450071  RH  063%=      5-min Rain = 0
KPT1 181340Z 20012KT 15/07 A298 RMK A01 T01460071  RH  062%=      5-min Rain = 0
KPT1 181345Z 20010G16KT 15/07 A298 RMK A01 T01480072  RH  062%=      5-min Rain = 0
KPT1 181350Z 20011KT 15/07 A298 RMK A01 T01500072  RH  061%=      5-min Rain = 0
KPT1 181355Z 20011G16KT 15/07 A298 RMK A01 T01520073  RH  060%=      5-min Rain = 0
KPT1 181400Z 20011KT 15/07 A298 RMK A01 T01540072  RH  060%=      5-min Rain = 0
KPT1 181405Z 20011G17KT 16/07 A298 RMK A01 T01560073  RH  059%=      5-min Rain = 0
KPT1 181410Z 20011G16KT 16/07 A298 RMK A01 T01570073  RH  059%=      5-min Rain = 0
KPT1 181415Z 20011G17KT 16/07 A298 RMK A01 T01600074  RH  058%=      5-min Rain = 0
KPT1 181420Z 20012G17KT 16/07 A298 RMK A01 T01630074  RH  057%=      5-min Rain = 0
KPT1 181425Z 19010KT 17/08 A298 RMK A01 T01660075  RH  056%=      5-min Rain = 0
KPT1 181430Z 20013G18KT 17/08 A298 RMK A01 T01670075  RH  056%=      5-min Rain = 0
KPT1 181435Z 20012G19KT 17/08 A298 RMK A01 T01670075  RH  056%=      5-min Rain = 0
KPT1 181440Z 20012KT 17/07 A298 RMK A01 T01700074  RH  055%=      5-min Rain = 0
KPT1 181445Z 20010G15KT 17/08 A298 RMK A01 T01720075  RH  054%=      5-min Rain = 0
KPT1 181450Z 20010KT 18/08 A298 RMK A01 T01750076  RH  053%=      5-min Rain = 0
KPT1 181455Z 20009G15KT 18/08 A298 RMK A01 T01790077  RH  052%=      5-min Rain = 0
KPT1 181500Z 20011G17KT 18/08 A298 RMK A01 T01810077  RH  052%=      5-min Rain = 0
KPT1 181505Z 20013KT 18/08 A298 RMK A01 T01810077  RH  052%=      5-min Rain = 0
KPT1 181510Z 20011KT 18/08 A298 RMK A01 T01840078  RH  051%=      5-min Rain = 0
KPT1 181515Z 20011KT 19/08 A298 RMK A01 T01860078  RH  051%=      5-min Rain = 0
KPT1 181520Z 20009G15KT 19/08 A298 RMK A01 T01920079  RH  049%=      5-min Rain = 0
KPT1 181525Z 20009KT 20/08 A298 RMK A01 T01980080  RH  048%=      5-min Rain = 0
KPT1 181530Z 20011KT 19/08 A298 RMK A01 T01930078  RH  049%=      5-min Rain = 0
KPT1 181535Z 20010KT 19/08 A298 RMK A01 T01910079  RH  049%=      5-min Rain = 0
KPT1 181540Z 19009KT 20/08 A298 RMK A01 T01980080  RH  048%=      5-min Rain = 0
KPT1 181545Z 19009KT 20/08 A298 RMK A01 T02030080  RH  046%=      5-min Rain = 0
KPT1 181550Z 18009KT 21/08 A2979 RMK A01 T02130082  RH  044%=      5-min Rain = 0
KPT1 181555Z 17011KT 21/08 A2979 RMK A01 T02140081  RH  043%=      5-min Rain = 0
KPT1 181600Z 18010KT 22/08 A2979 RMK A01 T02150081  RH  043%=      5-min Rain = 0
KPT1 181605Z 18010G15KT 22/08 A2979 RMK A01 T02210082  RH  042%=      5-min Rain = 0
KPT1 181610Z 17010KT 22/08 A2978 RMK A01 T02220082  RH  042%=      5-min Rain = 0
KPT1 181615Z 18010KT 23/08 A2978 RMK A01 T02260082  RH  041%=      5-min Rain = 0
KPT1 181620Z 18010G17KT 23/08 A2978 RMK A01 T02300083  RH  040%=      5-min Rain = 0
KPT1 181625Z 18010KT 23/08 A2978 RMK A01 T02340084  RH  039%=      5-min Rain = 0
KPT1 181630Z 18010G16KT 23/08 A2977 RMK A01 T02330084  RH  040%=      5-min Rain = 0
KPT1 181635Z 18010G16KT 24/08 A2977 RMK A01 T02370084  RH  039%=      5-min Rain = 0
KPT1 181640Z 19010G15KT 24/08 A2977 RMK A01 T02390084  RH  038%=      5-min Rain = 0
KPT1 181645Z 19010G16KT 24/09 A2977 RMK A01 T02400085  RH  038%=      5-min Rain = 0
KPT1 181650Z 18010G15KT 24/09 A2977 RMK A01 T02420085  RH  038%=      5-min Rain = 0
KPT1 181655Z 18008G13KT 25/09 A2976 RMK A01 T02480086  RH  037%=      5-min Rain = 0
KPT1 181700Z 18011G16KT 25/09 A2976 RMK A01 T02480085  RH  036%=      5-min Rain = 0
KPT1 181705Z 19010G16KT 25/09 A2976 RMK A01 T02510086  RH  036%=      5-min Rain = 0
KPT1 181710Z 18012G18KT 25/09 A2976 RMK A01 T02530085  RH  035%=      5-min Rain = 0
KPT1 181715Z 17012KT 25/09 A2976 RMK A01 T02530085  RH  035%=      5-min Rain = 0
KPT1 181720Z 18012G17KT 26/09 A2975 RMK A01 T02560086  RH  035%=      5-min Rain = 0
KPT1 181725Z 18013KT 26/09 A2975 RMK A01 T02570085  RH  035%=      5-min Rain = 0
KPT1 181730Z 17012KT 26/09 A2975 RMK A01 T02610086  RH  034%=      5-min Rain = 0
KPT1 181735Z 17011KT 26/09 A2975 RMK A01 T02630086  RH  033%=      5-min Rain = 0
KPT1 181740Z 18010G18KT 27/09 A2974 RMK A01 T02700087  RH  032%=      5-min Rain = 0
KPT1 181745Z 18010G15KT 27/09 A2974 RMK A01 T02710088  RH  032%=      5-min Rain = 0
KPT1 181750Z 18011G16KT 27/09 A2974 RMK A01 T02680087  RH  033%=      5-min Rain = 0
KPT1 181755Z 20012G18KT 27/09 A2974 RMK A01 T02700088  RH  033%=      5-min Rain = 0
KPT1 181800Z 21011KT 27/09 A2974 RMK A01 T02720089  RH  032%=      5-min Rain = 0
KPT1 181805Z 20010G17KT 27/09 A2974 RMK A01 T02740089  RH  032%=      5-min Rain = 0
KPT1 181810Z 19014G20KT 27/09 A2973 RMK A01 T02730088  RH  032%=      5-min Rain = 0
KPT1 181815Z 20013G19KT 28/09 A2973 RMK A01 T02760089  RH  032%=      5-min Rain = 0
KPT1 181820Z 20013G18KT 28/09 A2972 RMK A01 T02770089  RH  032%=      5-min Rain = 0
KPT1 181825Z 21011G17KT 28/09 A2972 RMK A01 T02800090  RH  031%=      5-min Rain = 0
KPT1 181830Z 20010G15KT 29/09 A2972 RMK A01 T02860091  RH  030%=      5-min Rain = 0
KPT1 181835Z 19010G17KT 29/09 A2971 RMK A01 T02850091  RH  031%=      5-min Rain = 0
KPT1 181840Z 20013KT 29/09 A2971 RMK A01 T02890091  RH  030%=      5-min Rain = 0
KPT1 181845Z 22012G17KT 29/09 A2971 RMK A01 T02910091  RH  030%=      5-min Rain = 0
KPT1 181850Z 22009G15KT 29/09 A297 RMK A01 T02900092  RH  030%=      5-min Rain = 0
KPT1 181855Z 22012G19KT 29/09 A297 RMK A01 T02910091  RH  030%=      5-min Rain = 0
KPT1 181900Z 22009G14KT 29/09 A297 RMK A01 T02930092  RH  029%=      5-min Rain = 0
KPT1 181905Z 23009KT 29/09 A2969 RMK A01 T02930091  RH  029%=      5-min Rain = 0
KPT1 181910Z 22011G16KT 30/09 A2969 RMK A01 T02950091  RH  029%=      5-min Rain = 0
KPT1 181915Z 21010G17KT 30/09 A2968 RMK A01 T02970092  RH  029%=      5-min Rain = 0
KPT1 181920Z 20012G17KT 30/09 A2968 RMK A01 T02950091  RH  029%=      5-min Rain = 0
KPT1 181925Z 22012G17KT 30/09 A2968 RMK A01 T02990092  RH  029%=      5-min Rain = 0
KPT1 181930Z 22011G18KT 30/09 A2967 RMK A01 T03000094  RH  029%=      5-min Rain = 0
KPT1 181935Z 21012G17KT 30/09 A2967 RMK A01 T03020093  RH  028%=      5-min Rain = 0
KPT1 181940Z 22013G18KT 30/09 A2967 RMK A01 T03000094  RH  029%=      5-min Rain = 0
KPT1 181945Z 21013G18KT 30/09 A2967 RMK A01 T03030094  RH  028%=      5-min Rain = 0
KPT1 181950Z 20011G19KT 30/10 A2966 RMK A01 T03030095  RH  028%=      5-min Rain = 0
KPT1 181955Z 19014KT 30/09 A2966 RMK A01 T03030094  RH  028%=      5-min Rain = 0
KPT1 182000Z 21013G18KT 30/09 A2966 RMK A01 T03040094  RH  028%=      5-min Rain = 0
KPT1 182005Z 21012G19KT 31/10 A2966 RMK A01 T03060095  RH  028%=      5-min Rain = 0
KPT1 182010Z 22011G18KT 30/09 A2965 RMK A01 T03020094  RH  028%=      5-min Rain = 0
KPT1 182015Z 20010G15KT 31/09 A2965 RMK A01 T03070094  RH  028%=      5-min Rain = 0
KPT1 182020Z 19009G19KT 31/10 A2965 RMK A01 T03110095  RH  027%=      5-min Rain = 0
KPT1 182025Z 21011G18KT 31/10 A2964 RMK A01 T03130095  RH  027%=      5-min Rain = 0
KPT1 182030Z 19013G19KT 31/09 A2964 RMK A01 T03110094  RH  027%=      5-min Rain = 0
KPT1 182035Z 20013G19KT 31/09 A2964 RMK A01 T03080093  RH  027%=      5-min Rain = 0
KPT1 182040Z 19012G18KT 31/09 A2964 RMK A01 T03090093  RH  027%=      5-min Rain = 0
KPT1 182045Z 19010G16KT 32/09 A2964 RMK A01 T03150093  RH  026%=      5-min Rain = 0
KPT1 182050Z 19010G20KT 30/09 A2963 RMK A01 T03020093  RH  028%=      5-min Rain = 0
KPT1 182055Z 20010G16KT 31/09 A2963 RMK A01 T03110092  RH  027%=      5-min Rain = 0
KPT1 182100Z 21012G21KT 32/09 A2963 RMK A01 T03160089  RH  025%=      5-min Rain = 0
KPT1 182105Z 21012G18KT 31/08 A2963 RMK A01 T03130084  RH  025%=      5-min Rain = 0
KPT1 182110Z 21009G17KT 32/09 A2963 RMK A01 T03210088  RH  024%=      5-min Rain = 0
KPT1 182115Z 19012G20KT 31/09 A2963 RMK A01 T03100087  RH  026%=      5-min Rain = 0
KPT1 182120Z 19010KT 30/09 A2963 RMK A01 T03040088  RH  027%=      5-min Rain = 0
KPT1 182125Z 20008G13KT 30/09 A2963 RMK A01 T03020089  RH  027%=      5-min Rain = 0
KPT1 182130Z 22011G17KT 31/08 A2963 RMK A01 T03070080  RH  025%=      5-min Rain = 0
KPT1 182135Z 22013G19KT 32/07 A2962 RMK A01 T03200071  RH  022%=      5-min Rain = 0
KPT1 182140Z 22014G21KT 31/07 A2962 RMK A01 T03130073  RH  023%=      5-min Rain = 0
KPT1 182145Z 21014G19KT 31/07 A2962 RMK A01 T03110073  RH  023%=      5-min Rain = 0
KPT1 182150Z 21013G22KT 31/07 A2962 RMK A01 T03090073  RH  023%=      5-min Rain = 0
KPT1 182155Z 22014G21KT 31/07 A2962 RMK A01 T03120073  RH  023%=      5-min Rain = 0
KPT1 182200Z 22012G17KT 31/07 A2962 RMK A01 T03050073  RH  024%=      5-min Rain = 0
KPT1 182205Z 22009G14KT 31/07 A2962 RMK A01 T03070071  RH  023%=      5-min Rain = 0
KPT1 182210Z 23014G19KT 30/07 A2962 RMK A01 T03000071  RH  024%=      5-min Rain = 0
KPT1 182215Z 23013G18KT 30/07 A2962 RMK A01 T02980071  RH  025%=      5-min Rain = 0
KPT1 182220Z 22012G18KT 30/07 A2962 RMK A01 T03010071  RH  024%=      5-min Rain = 0
KPT1 182225Z 22009G14KT 31/07 A2962 RMK A01 T03130072  RH  023%=      5-min Rain = 0
KPT1 182230Z 23015G20KT 31/06 A2962 RMK A01 T03140064  RH  021%=      5-min Rain = 0
KPT1 182235Z 24016G21KT 31/06 A2962 RMK A01 T03100055  RH  021%=      5-min Rain = 0
KPT1 182240Z 23015G23KT 31/05 A2962 RMK A01 T03110048  RH  019%=      5-min Rain = 0
KPT1 182245Z 23016G22KT 31/04 A2962 RMK A01 T03090036  RH  018%=      5-min Rain = 0
KPT1 182250Z 24015G20KT 31/04 A2962 RMK A01 T03080037  RH  018%=      5-min Rain = 0
KPT1 182255Z 24013G22KT 31/04 A2963 RMK A01 T03070042  RH  019%=      5-min Rain = 0
KPT1 182300Z 24015G20KT 30/05 A2963 RMK A01 T03020047  RH  020%=      5-min Rain = 0
KPT1 182305Z 24016G24KT 30/05 A2963 RMK A01 T03030045  RH  020%=      5-min Rain = 0
KPT1 182310Z 24016G21KT 30/04 A2963 RMK A01 T03020042  RH  020%=      5-min Rain = 0
KPT1 182315Z 23012G17KT 30/05 A2963 RMK A01 T03010047  RH  020%=      5-min Rain = 0
KPT1 182320Z 23014G20KT 30/05 A2963 RMK A01 T03000049  RH  021%=      5-min Rain = 0
KPT1 182325Z 23013KT 30/05 A2963 RMK A01 T02980046  RH  021%=      5-min Rain = 0
KPT1 182330Z 23011G17KT 30/05 A2963 RMK A01 T02960047  RH  021%=      5-min Rain = 0
KPT1 182335Z 23016G21KT 30/05 A2963 RMK A01 T02960049  RH  021%=      5-min Rain = 0
KPT1 182340Z 23012G17KT 29/05 A2963 RMK A01 T02940052  RH  022%=      5-min Rain = 0
KPT1 182345Z 23012KT 29/05 A2963 RMK A01 T02930051  RH  022%=      5-min Rain = 0
KPT1 182350Z 23010G17KT 29/05 A2963 RMK A01 T02910051  RH  022%=      5-min Rain = 0
KPT1 182355Z 23011KT 29/05 A2964 RMK A01 T02890050  RH  022%=      5-min Rain = 0
KPT1 190000Z 24012KT 29/05 A2964 RMK A01 T02870050  RH  023%=      5-min Rain = 0
KPT1 190005Z 23012KT 29/05 A2964 RMK A01 T02850051  RH  023%=      5-min Rain = 0
KPT1 190010Z 23009KT 28/05 A2964 RMK A01 T02830052  RH  023%=      5-min Rain = 0
KPT1 190015Z 23009KT 28/05 A2964 RMK A01 T02800051  RH  024%=      5-min Rain = 0
KPT1 190020Z 23009KT 28/05 A2964 RMK A01 T02780050  RH  024%=      5-min Rain = 0
KPT1 190025Z 23008KT 28/05 A2964 RMK A01 T02750049  RH  024%=      5-min Rain = 0
KPT1 190030Z 23007KT 27/05 A2964 RMK A01 T02710049  RH  025%=      5-min Rain = 0
KPT1 190035Z 23008KT 27/05 A2964 RMK A01 T02700047  RH  024%=      5-min Rain = 0
KPT1 190040Z 22007KT 27/05 A2964 RMK A01 T02680045  RH  025%=      5-min Rain = 0
KPT1 190045Z 23008KT 27/05 A2964 RMK A01 T02660045  RH  025%=      5-min Rain = 0
KPT1 190050Z 22008KT 26/04 A2965 RMK A01 T02640044  RH  025%=      5-min Rain = 0
KPT1 190055Z 23009KT 26/04 A2965 RMK A01 T02640042  RH  025%=      5-min Rain = 0
KPT1 190100Z 23008G13KT 26/04 A2965 RMK A01 T02640040  RH  024%=      5-min Rain = 0
KPT1 190105Z 22009KT 26/04 A2965 RMK A01 T02640039  RH  024%=      5-min Rain = 0
KPT1 190110Z 22009KT 26/04 A2965 RMK A01 T02630037  RH  024%=      5-min Rain = 0
KPT1 190115Z 22010KT 26/04 A2965 RMK A01 T02620037  RH  024%=      5-min Rain = 0
KPT1 190120Z 23009KT 26/04 A2965 RMK A01 T02600036  RH  024%=      5-min Rain = 0
KPT1 190125Z 23009KT 26/04 A2966 RMK A01 T02580035  RH  024%=      5-min Rain = 0
KPT1 190130Z 23009KT 26/03 A2966 RMK A01 T02570034  RH  024%=      5-min Rain = 0
KPT1 190135Z 23009KT 26/03 A2966 RMK A01 T02580033  RH  024%=      5-min Rain = 0
KPT1 190140Z 23010G15KT 26/03 A2966 RMK A01 T02570033  RH  024%=      5-min Rain = 0
KPT1 190145Z 23011KT 26/03 A2966 RMK A01 T02580031  RH  024%=      5-min Rain = 0
KPT1 190150Z 24011KT 26/03 A2967 RMK A01 T02580031  RH  023%=      5-min Rain = 0
KPT1 190155Z 27011KT 25/03 A2967 RMK A01 T02540032  RH  024%=      5-min Rain = 0
KPT1 190200Z 27014G24KT 25/04 A2969 RMK A01 T02460036  RH  026%=      5-min Rain = 0
KPT1 190205Z 27017G23KT 25/04 A2968 RMK A01 T02500043  RH  027%=      5-min Rain = 0
KPT1 190210Z 27013G19KT 25/05 A2969 RMK A01 T02470048  RH  028%=      5-min Rain = 0
KPT1 190215Z 27014G20KT 24/05 A2969 RMK A01 T02440049  RH  029%=      5-min Rain = 0
KPT1 190220Z 27014G19KT 24/05 A2969 RMK A01 T02430048  RH  029%=      5-min Rain = 0
KPT1 190225Z 28014G20KT 24/05 A2969 RMK A01 T02420047  RH  029%=      5-min Rain = 0
KPT1 190230Z 28012G18KT 24/05 A2969 RMK A01 T02410046  RH  029%=      5-min Rain = 0
KPT1 190235Z 28010G15KT 24/05 A2969 RMK A01 T02380046  RH  029%=      5-min Rain = 0
KPT1 190240Z 28011KT 24/05 A2969 RMK A01 T02370045  RH  029%=      5-min Rain = 0
KPT1 190245Z 28011G16KT 24/04 A297 RMK A01 T02360043  RH  029%=      5-min Rain = 0
KPT1 190250Z 28013G18KT 24/04 A297 RMK A01 T02370042  RH  029%=      5-min Rain = 0
KPT1 190255Z 28012G17KT 24/04 A297 RMK A01 T02350043  RH  029%=      5-min Rain = 0
KPT1 190300Z 28012G18KT 23/04 A297 RMK A01 T02330044  RH  030%=      5-min Rain = 0
KPT1 190305Z 27013G18KT 23/04 A2971 RMK A01 T02320044  RH  030%=      5-min Rain = 0
KPT1 190310Z 28012G17KT 23/05 A2971 RMK A01 T02300045  RH  031%=      5-min Rain = 0
KPT1 190315Z 27012G17KT 23/05 A2971 RMK A01 T02290045  RH  031%=      5-min Rain = 0
KPT1 190320Z 27010KT 22/05 A2972 RMK A01 T02240046  RH  032%=      5-min Rain = 0
KPT1 190325Z 27010KT 22/05 A2971 RMK A01 T02220047  RH  033%=      5-min Rain = 0
KPT1 190330Z 27010KT 22/05 A2971 RMK A01 T02200048  RH  033%=      5-min Rain = 0
KPT1 190335Z 27010KT 22/05 A2972 RMK A01 T02180049  RH  034%=      5-min Rain = 0
KPT1 190340Z 27009KT 22/05 A2972 RMK A01 T02150050  RH  035%=      5-min Rain = 0
KPT1 190345Z 26009KT 21/05 A2972 RMK A01 T02120050  RH  035%=      5-min Rain = 0
KPT1 190350Z 26009KT 21/05 A2972 RMK A01 T02100051  RH  036%=      5-min Rain = 0
KPT1 190355Z 25010KT 21/05 A2972 RMK A01 T02070051  RH  037%=      5-min Rain = 0
KPT1 190400Z 25010KT 21/05 A2972 RMK A01 T02060051  RH  037%=      5-min Rain = 0
KPT1 190405Z 25009KT 20/05 A2973 RMK A01 T02040051  RH  038%=      5-min Rain = 0
KPT1 190410Z 25009KT 20/05 A2972 RMK A01 T02020051  RH  038%=      5-min Rain = 0
KPT1 190415Z 25008KT 20/05 A2972 RMK A01 T02000051  RH  038%=      5-min Rain = 0
KPT1 190420Z 25009KT 20/05 A2972 RMK A01 T02010051  RH  038%=      5-min Rain = 0
KPT1 190425Z 25011KT 20/05 A2973 RMK A01 T02010050  RH  038%=      5-min Rain = 0
KPT1 190430Z 25011KT 20/05 A2973 RMK A01 T02010049  RH  038%=      5-min Rain = 0
KPT1 190435Z 25010KT 20/05 A2973 RMK A01 T02010048  RH  037%=      5-min Rain = 0
KPT1 190440Z 25010KT 20/05 A2973 RMK A01 T02000047  RH  037%=      5-min Rain = 0
KPT1 190445Z 26011KT 20/05 A2973 RMK A01 T01950048  RH  039%=      5-min Rain = 0
KPT1 190450Z 26011G16KT 20/05 A2973 RMK A01 T01950048  RH  039%=      5-min Rain = 0
KPT1 190455Z 26009KT 20/05 A2973 RMK A01 T01980047  RH  038%=      5-min Rain = 0

Page generated in 0.0159 seconds.